createdAt,value
2019-02-19T00:01:01.589Z,19.93
2019-02-19T00:04:06.855Z,18.30
2019-02-19T00:07:12.076Z,18.37
2019-02-19T00:10:17.301Z,20.37
2019-02-19T00:13:22.460Z,18.57
2019-02-19T00:16:27.663Z,17.67
2019-02-19T00:19:32.840Z,18.30
2019-02-19T00:22:38.027Z,19.13
2019-02-19T00:25:43.106Z,18.73
2019-02-19T00:28:48.231Z,18.60
2019-02-19T00:31:53.425Z,19.60
2019-02-19T00:34:58.628Z,19.10
2019-02-19T00:38:03.814Z,18.63
2019-02-19T00:41:08.961Z,19.37
2019-02-19T00:44:14.111Z,18.57
2019-02-19T00:47:19.287Z,18.03
2019-02-19T00:50:24.603Z,15.30
2019-02-19T00:53:29.773Z,16.67
2019-02-19T00:56:34.960Z,17.13
2019-02-19T00:59:40.124Z,17.77
2019-02-19T01:02:45.350Z,16.10
2019-02-19T01:05:50.538Z,16.10
2019-02-19T01:08:55.659Z,16.03
2019-02-19T01:12:00.773Z,15.63
2019-02-19T01:15:07.656Z,14.53
2019-02-19T01:18:12.858Z,16.60
2019-02-19T01:21:18.002Z,18.30
2019-02-19T01:24:23.166Z,16.67
2019-02-19T01:27:28.361Z,16.63
2019-02-19T01:30:33.545Z,17.50
2019-02-19T01:33:38.654Z,18.53
2019-02-19T01:36:43.819Z,19.47
2019-02-19T01:39:49.133Z,19.70
2019-02-19T01:42:54.401Z,18.83
2019-02-19T01:45:59.538Z,19.20
2019-02-19T01:49:04.644Z,18.70
2019-02-19T01:52:10.006Z,20.93
2019-02-19T01:55:15.164Z,23.23
2019-02-19T01:58:20.317Z,20.83
2019-02-19T02:01:25.433Z,19.30
2019-02-19T02:04:30.555Z,23.27
2019-02-19T02:07:35.665Z,25.77
2019-02-19T02:10:40.877Z,19.80
2019-02-19T02:13:46.009Z,29.43
2019-02-19T02:16:51.215Z,22.03
2019-02-19T02:19:56.368Z,27.37
2019-02-19T02:23:01.570Z,21.63
2019-02-19T02:26:06.757Z,22.73
2019-02-19T02:29:11.956Z,21.80
2019-02-19T02:32:17.161Z,18.90
2019-02-19T02:35:22.355Z,19.17
2019-02-19T02:38:27.516Z,18.43
2019-02-19T02:41:32.690Z,19.83
2019-02-19T02:44:37.854Z,23.97
2019-02-19T02:47:42.990Z,18.43
2019-02-19T02:50:48.173Z,17.57
2019-02-19T02:53:53.452Z,22.53
2019-02-19T02:56:58.594Z,21.73
2019-02-19T03:00:03.800Z,24.17
2019-02-19T03:03:09.624Z,19.90
2019-02-19T03:06:23.634Z,18.37
2019-02-19T03:09:28.777Z,24.63
2019-02-19T03:12:33.985Z,19.30
2019-02-19T03:15:39.162Z,26.30
2019-02-19T03:18:44.371Z,18.90
2019-02-19T03:21:49.504Z,22.87
2019-02-19T03:24:54.697Z,17.90
2019-02-19T03:27:59.851Z,17.03
2019-02-19T03:31:05.093Z,18.50
2019-02-19T03:34:10.255Z,22.27
2019-02-19T03:37:15.394Z,25.97
2019-02-19T03:40:20.503Z,22.90
2019-02-19T03:43:25.781Z,29.83
2019-02-19T03:46:30.944Z,26.47
2019-02-19T03:49:36.106Z,34.43
2019-02-19T03:52:41.270Z,28.43
2019-02-19T03:55:46.421Z,28.43
2019-02-19T03:58:51.620Z,26.17
2019-02-19T04:01:56.825Z,27.50
2019-02-19T04:05:01.981Z,21.10
2019-02-19T04:08:07.281Z,23.97
2019-02-19T04:11:12.382Z,26.13
2019-02-19T04:14:17.524Z,21.80
2019-02-19T04:17:22.725Z,27.93
2019-02-19T04:20:28.011Z,22.47
2019-02-19T04:23:33.158Z,21.90
2019-02-19T04:26:38.559Z,21.17
2019-02-19T04:29:43.762Z,22.40
2019-02-19T04:32:48.980Z,18.43
2019-02-19T04:35:54.099Z,18.73
2019-02-19T04:38:59.462Z,19.97
2019-02-19T04:42:04.569Z,16.23
2019-02-19T04:45:09.887Z,19.10
2019-02-19T04:48:15.074Z,18.47
2019-02-19T04:51:20.253Z,19.40
2019-02-19T04:54:25.456Z,18.10
2019-02-19T04:57:30.635Z,15.53
2019-02-19T05:00:35.797Z,15.63
2019-02-19T05:03:40.980Z,15.90
2019-02-19T05:06:46.166Z,16.93
2019-02-19T05:09:51.309Z,20.37
2019-02-19T05:12:56.482Z,17.87
2019-02-19T05:16:01.634Z,20.37
2019-02-19T05:19:07.872Z,16.57
2019-02-19T05:22:13.056Z,18.60
2019-02-19T05:25:18.202Z,17.63
2019-02-19T05:28:23.384Z,17.13
2019-02-19T05:31:28.525Z,21.77
2019-02-19T05:34:33.704Z,17.30
2019-02-19T05:37:38.869Z,19.17
2019-02-19T05:40:44.019Z,23.13
2019-02-19T05:43:49.148Z,18.43
2019-02-19T05:46:54.271Z,20.47
2019-02-19T05:49:59.453Z,19.90
2019-02-19T05:53:04.738Z,18.23
2019-02-19T05:56:09.881Z,17.23
2019-02-19T05:59:15.078Z,23.07
2019-02-19T06:02:20.336Z,21.10
2019-02-19T06:05:25.469Z,24.70
2019-02-19T06:08:30.644Z,22.50
2019-02-19T06:11:35.816Z,21.40
2019-02-19T06:14:41.205Z,23.17
2019-02-19T06:17:46.419Z,20.13
2019-02-19T06:20:51.619Z,22.30
2019-02-19T06:23:56.720Z,18.03
2019-02-19T06:27:01.921Z,19.67
2019-02-19T06:30:10.915Z,20.03
2019-02-19T06:33:16.000Z,19.07
2019-02-19T06:36:21.124Z,16.60
2019-02-19T06:39:26.290Z,18.87
2019-02-19T06:42:31.445Z,17.53
2019-02-19T06:45:36.629Z,18.03
2019-02-19T06:48:41.791Z,19.23
2019-02-19T06:51:46.987Z,21.37
2019-02-19T06:54:52.161Z,19.27
2019-02-19T06:57:57.381Z,26.13
2019-02-19T07:01:02.501Z,27.70
2019-02-19T07:04:14.422Z,25.00
2019-02-19T07:07:20.900Z,24.77
2019-02-19T07:10:26.306Z,26.60
2019-02-19T07:13:31.656Z,22.00
2019-02-19T07:16:36.781Z,26.23
2019-02-19T07:19:41.930Z,23.80
2019-02-19T07:22:47.081Z,23.87
2019-02-19T07:25:52.266Z,23.67
2019-02-19T07:28:57.443Z,21.27
2019-02-19T07:32:02.578Z,31.57
2019-02-19T07:35:07.814Z,29.07
2019-02-19T07:38:12.912Z,21.30
2019-02-19T07:41:18.091Z,17.53
2019-02-19T07:44:23.235Z,17.23
2019-02-19T07:47:28.412Z,17.10
2019-02-19T07:50:33.691Z,16.90
2019-02-19T07:53:38.826Z,17.70
2019-02-19T07:56:44.185Z,18.00
2019-02-19T07:59:49.353Z,20.70
2019-02-19T08:02:54.496Z,19.53
2019-02-19T08:05:59.635Z,17.90
2019-02-19T08:09:06.652Z,18.00
2019-02-19T08:12:12.066Z,17.80
2019-02-19T08:15:17.186Z,17.37
2019-02-19T08:18:22.416Z,21.60
2019-02-19T08:21:27.602Z,22.60
2019-02-19T08:24:32.776Z,18.57
2019-02-19T08:27:37.905Z,16.07
2019-02-19T08:30:43.031Z,17.87
2019-02-19T08:33:48.212Z,19.07
2019-02-19T08:36:53.356Z,17.93
2019-02-19T08:39:58.534Z,17.33
2019-02-19T08:43:04.005Z,19.13
2019-02-19T08:46:09.142Z,19.37
2019-02-19T08:49:14.400Z,17.17
2019-02-19T08:52:19.585Z,16.30
2019-02-19T08:55:24.800Z,16.30
2019-02-19T08:58:30.086Z,16.30
2019-02-19T09:01:35.251Z,15.73
2019-02-19T09:04:40.390Z,17.73
2019-02-19T09:07:45.577Z,16.93
2019-02-19T09:10:50.860Z,16.70
2019-02-19T09:13:56.033Z,18.63
2019-02-19T09:17:01.179Z,17.77
2019-02-19T09:20:07.137Z,18.83
2019-02-19T09:23:12.342Z,17.97
2019-02-19T09:26:17.542Z,17.70
2019-02-19T09:29:22.710Z,17.00
2019-02-19T09:32:27.859Z,16.37
2019-02-19T09:35:32.982Z,16.27
2019-02-19T09:38:38.237Z,14.90
2019-02-19T09:41:43.384Z,15.97
2019-02-19T09:44:48.542Z,14.80
2019-02-19T09:48:01.044Z,14.30
2019-02-19T09:51:00.655Z,15.97
2019-02-19T09:54:05.763Z,14.70
2019-02-19T09:57:10.946Z,13.33
2019-02-19T10:00:16.220Z,13.00
2019-02-19T10:03:21.468Z,15.17
2019-02-19T10:06:30.272Z,14.70
2019-02-19T10:09:37.036Z,15.33
2019-02-19T10:12:42.232Z,15.67
2019-02-19T10:15:47.400Z,15.93
2019-02-19T10:18:52.481Z,16.07
2019-02-19T10:21:57.644Z,16.90
2019-02-19T10:25:02.800Z,16.43
2019-02-19T10:28:07.993Z,17.17
2019-02-19T10:31:13.136Z,17.03
2019-02-19T10:34:18.259Z,18.20
2019-02-19T10:37:23.472Z,17.47
2019-02-19T10:40:28.692Z,17.57
2019-02-19T10:43:33.843Z,17.27
2019-02-19T10:46:39.031Z,18.57
2019-02-19T10:49:44.314Z,18.57
2019-02-19T10:52:49.467Z,19.73
2019-02-19T10:55:55.688Z,22.20
2019-02-19T10:59:00.845Z,23.87
2019-02-19T11:02:05.985Z,24.87
2019-02-19T11:05:11.169Z,22.20
2019-02-19T11:08:16.293Z,23.30
2019-02-19T11:11:21.460Z,20.67
2019-02-19T11:14:26.596Z,29.60
2019-02-19T11:17:31.762Z,29.87
2019-02-19T11:20:36.920Z,25.03
2019-02-19T11:23:42.098Z,24.00
2019-02-19T11:26:47.434Z,23.20
2019-02-19T11:29:52.575Z,24.30
2019-02-19T11:32:57.761Z,27.50
2019-02-19T11:36:02.981Z,33.70
2019-02-19T11:39:12.014Z,40.77
2019-02-19T11:42:17.180Z,38.93
2019-02-19T11:45:22.340Z,35.33
2019-02-19T11:48:27.514Z,30.50
2019-02-19T11:51:32.677Z,29.00
2019-02-19T11:54:37.896Z,29.40
2019-02-19T11:57:43.042Z,16.90
2019-02-19T12:00:48.201Z,16.50
2019-02-19T12:03:54.592Z,18.20
2019-02-19T12:06:59.738Z,17.33
2019-02-19T12:10:05.005Z,18.47
2019-02-19T12:13:10.206Z,17.20
2019-02-19T12:16:15.451Z,15.83
2019-02-19T12:19:20.589Z,15.33
2019-02-19T12:22:25.765Z,16.43
2019-02-19T12:25:30.896Z,17.93
2019-02-19T12:28:36.141Z,17.63
2019-02-19T12:31:41.316Z,16.33
2019-02-19T12:34:48.443Z,17.40
2019-02-19T12:37:55.263Z,16.33
2019-02-19T12:41:00.449Z,18.17
2019-02-19T12:44:05.600Z,15.80
2019-02-19T12:47:10.717Z,15.03
2019-02-19T12:50:15.928Z,14.77
2019-02-19T12:53:21.101Z,14.67
2019-02-19T12:56:26.225Z,12.93
2019-02-19T12:59:31.721Z,12.97
2019-02-19T13:02:36.812Z,13.70
2019-02-19T13:05:42.089Z,11.80
2019-02-19T13:08:47.139Z,10.83
2019-02-19T13:11:52.353Z,8.53
2019-02-19T13:14:57.572Z,14.40
2019-02-19T13:18:02.774Z,9.43
2019-02-19T13:21:07.898Z,8.40
2019-02-19T13:24:13.111Z,7.80
2019-02-19T13:27:18.221Z,7.23
2019-02-19T13:30:23.376Z,8.23
2019-02-19T13:33:28.547Z,7.47
2019-02-19T13:36:33.660Z,3.70
2019-02-19T13:39:38.809Z,3.93
2019-02-19T13:42:43.924Z,4.00
2019-02-19T13:45:49.183Z,3.17
2019-02-19T13:48:54.353Z,4.30
2019-02-19T13:52:05.472Z,5.17
2019-02-19T13:55:17.597Z,3.60
2019-02-19T13:58:22.747Z,2.83
2019-02-19T14:01:27.934Z,2.67
2019-02-19T14:04:33.093Z,2.57
2019-02-19T14:07:38.211Z,2.23
2019-02-19T14:10:43.403Z,2.30
2019-02-19T14:14:10.300Z,2.70
2019-02-19T14:17:17.785Z,2.87
2019-02-19T14:20:41.886Z,2.70
2019-02-19T14:24:04.847Z,2.83
2019-02-19T14:27:34.839Z,2.87
2019-02-19T14:31:14.482Z,3.30
2019-02-19T14:34:47.131Z,2.80
2019-02-19T14:38:09.990Z,2.83
2019-02-19T14:41:34.701Z,3.00
2019-02-19T14:44:58.859Z,3.20
2019-02-19T14:48:23.102Z,3.10
2019-02-19T14:51:45.396Z,2.53
2019-02-19T14:55:01.808Z,3.27
2019-02-19T14:58:24.505Z,3.30
2019-02-19T15:01:47.506Z,3.27
2019-02-19T15:05:06.875Z,3.20
2019-02-19T15:08:34.052Z,2.67
2019-02-19T15:11:58.210Z,2.60
2019-02-19T15:15:22.279Z,4.13
2019-02-19T15:18:48.367Z,2.40
2019-02-19T15:22:15.525Z,2.67
2019-02-19T15:25:42.445Z,2.93
2019-02-19T15:29:01.715Z,3.40
2019-02-19T15:32:25.862Z,4.80
2019-02-19T15:35:41.969Z,2.47
2019-02-19T15:39:24.327Z,2.93
2019-02-19T15:42:47.045Z,2.93
2019-02-19T15:46:11.211Z,2.53
2019-02-19T15:49:47.584Z,2.43
2019-02-19T15:53:07.194Z,2.40
2019-02-19T15:56:24.726Z,3.00
2019-02-19T15:59:46.600Z,2.83
2019-02-19T16:03:11.733Z,2.57
2019-02-19T16:06:23.497Z,2.33
2019-02-19T16:09:53.397Z,3.20
2019-02-19T16:13:26.795Z,2.90
2019-02-19T16:17:00.820Z,2.93
2019-02-19T16:20:32.330Z,2.63
2019-02-19T16:24:01.014Z,2.60
2019-02-19T16:27:26.393Z,2.30
2019-02-19T16:31:05.922Z,2.30
2019-02-19T16:34:19.994Z,2.70
2019-02-19T16:37:47.842Z,1.90
2019-02-19T16:41:09.501Z,2.40
2019-02-19T16:44:46.012Z,2.80
2019-02-19T16:48:09.086Z,2.70
2019-02-19T16:51:45.443Z,2.40
2019-02-19T16:55:27.843Z,2.93
2019-02-19T16:58:50.624Z,2.63
2019-02-19T17:02:10.577Z,3.10
2019-02-19T17:05:28.296Z,3.30
2019-02-19T17:08:50.547Z,4.93
2019-02-19T17:12:09.047Z,5.13
2019-02-19T17:15:32.294Z,5.73
2019-02-19T17:18:53.379Z,4.97
2019-02-19T17:22:23.520Z,4.60
2019-02-19T17:25:40.101Z,4.93
2019-02-19T17:29:01.035Z,4.07
2019-02-19T17:32:34.206Z,11.67
2019-02-19T17:35:49.995Z,12.77
2019-02-19T17:39:03.951Z,8.90
2019-02-19T17:42:29.117Z,9.55
2019-02-19T17:45:52.198Z,9.20
2019-02-19T17:49:19.497Z,26.43
2019-02-19T17:52:36.646Z,7.37
2019-02-19T17:55:58.416Z,20.27
2019-02-19T17:59:15.077Z,14.90
2019-02-19T18:02:30.016Z,10.53
2019-02-19T18:06:05.982Z,18.93
2019-02-19T18:09:18.628Z,43.97
2019-02-19T18:12:38.290Z,21.63
2019-02-19T18:16:01.486Z,9.50
2019-02-19T18:19:06.736Z,9.83
2019-02-19T18:22:12.071Z,14.20
2019-02-19T18:25:17.307Z,9.97
2019-02-19T18:28:22.464Z,9.90
2019-02-19T18:31:27.683Z,9.70
2019-02-19T18:34:32.984Z,9.43
2019-02-19T18:37:38.209Z,8.90
2019-02-19T18:40:43.320Z,7.60
2019-02-19T18:43:48.584Z,10.70
2019-02-19T18:46:53.813Z,11.73
2019-02-19T18:49:59.051Z,10.33
2019-02-19T18:53:04.194Z,16.87
2019-02-19T18:56:09.423Z,13.70
2019-02-19T18:59:14.622Z,11.07
2019-02-19T19:02:19.809Z,9.77
2019-02-19T19:05:25.025Z,11.70
2019-02-19T19:08:30.716Z,13.47
2019-02-19T19:11:35.910Z,15.10
2019-02-19T19:14:41.079Z,13.77
2019-02-19T19:17:46.339Z,15.40
2019-02-19T19:20:51.610Z,14.63
2019-02-19T19:23:56.754Z,12.40
2019-02-19T19:27:01.927Z,14.13
2019-02-19T19:30:08.219Z,12.37
2019-02-19T19:33:13.462Z,11.90
2019-02-19T19:36:18.609Z,12.63
2019-02-19T19:39:23.786Z,11.97
2019-02-19T19:42:28.935Z,14.70
2019-02-19T19:45:34.213Z,15.67
2019-02-19T19:48:39.401Z,15.33
2019-02-19T19:51:44.636Z,19.90
2019-02-19T19:54:49.890Z,18.00
2019-02-19T19:57:55.056Z,14.67
2019-02-19T20:01:00.804Z,14.50
2019-02-19T20:04:06.726Z,14.10
2019-02-19T20:07:11.937Z,15.13
2019-02-19T20:10:17.152Z,17.70
2019-02-19T20:13:22.330Z,19.60
2019-02-19T20:16:27.526Z,18.07
2019-02-19T20:19:32.709Z,17.23
2019-02-19T20:22:37.847Z,12.33
2019-02-19T20:25:43.114Z,16.20
2019-02-19T20:28:48.430Z,12.17
2019-02-19T20:31:53.724Z,12.73
2019-02-19T20:34:58.936Z,12.17
2019-02-19T20:38:04.210Z,14.53
2019-02-19T20:41:09.561Z,13.80
2019-02-19T20:44:14.815Z,18.33
2019-02-19T20:47:20.042Z,22.60
2019-02-19T20:50:25.211Z,18.53
2019-02-19T20:53:30.429Z,19.67
2019-02-19T20:56:35.671Z,25.93
2019-02-19T20:59:40.958Z,24.50
2019-02-19T21:02:46.247Z,24.23
2019-02-19T21:05:51.546Z,26.10
2019-02-19T21:08:56.995Z,33.20
2019-02-19T21:12:02.245Z,33.63
2019-02-19T21:15:07.606Z,35.07
2019-02-19T21:18:13.697Z,14.83
2019-02-19T21:21:19.100Z,13.67
2019-02-19T21:24:24.470Z,14.07
2019-02-19T21:27:29.889Z,12.77
2019-02-19T21:30:35.342Z,12.10
2019-02-19T21:33:40.566Z,12.03
2019-02-19T21:36:45.818Z,10.90
2019-02-19T21:39:51.100Z,10.73
2019-02-19T21:42:56.339Z,10.90
2019-02-19T21:46:02.793Z,11.63
2019-02-19T21:49:08.097Z,12.77
2019-02-19T21:52:13.375Z,14.33
2019-02-19T21:55:18.753Z,11.50
2019-02-19T21:58:24.071Z,16.23
2019-02-19T22:01:29.566Z,18.53
2019-02-19T22:04:34.894Z,16.83
2019-02-19T22:07:40.227Z,20.33
2019-02-19T22:10:45.903Z,23.43
2019-02-19T22:13:51.296Z,28.70
2019-02-19T22:16:56.549Z,30.20
2019-02-19T22:20:03.692Z,29.63
2019-02-19T22:23:10.737Z,29.73
2019-02-19T22:26:17.113Z,27.60
2019-02-19T22:29:22.486Z,28.77
2019-02-19T22:32:27.705Z,26.67
2019-02-19T22:35:32.955Z,27.03
2019-02-19T22:38:38.342Z,25.53
2019-02-19T22:41:43.504Z,21.73
2019-02-19T22:44:51.466Z,17.97
2019-02-19T22:47:56.664Z,16.93
2019-02-19T22:51:01.845Z,16.10
2019-02-19T22:54:11.116Z,15.43
2019-02-19T22:57:17.216Z,15.17
2019-02-19T23:00:45.815Z,20.17
2019-02-19T23:03:52.667Z,33.47
2019-02-19T23:06:57.825Z,31.03
2019-02-19T23:10:03.069Z,27.33
2019-02-19T23:13:08.562Z,20.73
2019-02-19T23:16:13.867Z,17.50
2019-02-19T23:19:19.068Z,17.53
2019-02-19T23:22:24.243Z,17.30
2019-02-19T23:25:29.433Z,17.70
2019-02-19T23:28:34.670Z,16.90
2019-02-19T23:31:41.054Z,17.73
2019-02-19T23:34:47.857Z,16.90
2019-02-19T23:37:53.077Z,17.17
2019-02-19T23:40:59.307Z,16.73
2019-02-19T23:44:04.498Z,16.63
2019-02-19T23:47:09.703Z,13.30
2019-02-19T23:50:14.840Z,15.20
2019-02-19T23:53:20.204Z,18.43
2019-02-19T23:56:25.297Z,13.63
2019-02-19T23:59:30.607Z,21.20
